sensor_id;sensor_type;location;lat;lon;timestamp;P1;durP1;ratioP1;P2;durP2;ratioP2
22837;SDS011;11585;51.450;-0.240;2023-03-13T00:00:55;20.88;;;3.78;;
22837;SDS011;11585;51.450;-0.240;2023-03-13T00:03:22;25.00;;;5.45;;
22837;SDS011;11585;51.450;-0.240;2023-03-13T00:05:48;25.65;;;4.97;;
22837;SDS011;11585;51.450;-0.240;2023-03-13T00:08:13;30.23;;;5.28;;
22837;SDS011;11585;51.450;-0.240;2023-03-13T00:10:39;24.80;;;5.20;;
22837;SDS011;11585;51.450;-0.240;2023-03-13T00:13:08;25.05;;;6.22;;
22837;SDS011;11585;51.450;-0.240;2023-03-13T00:15:34;36.63;;;6.03;;
22837;SDS011;11585;51.450;-0.240;2023-03-13T00:17:59;33.20;;;7.47;;
22837;SDS011;11585;51.450;-0.240;2023-03-13T00:20:25;34.55;;;7.13;;
22837;SDS011;11585;51.450;-0.240;2023-03-13T00:22:51;37.28;;;6.78;;
22837;SDS011;11585;51.450;-0.240;2023-03-13T00:25:16;35.72;;;7.22;;
22837;SDS011;11585;51.450;-0.240;2023-03-13T00:27:42;48.03;;;7.35;;
22837;SDS011;11585;51.450;-0.240;2023-03-13T00:30:08;41.22;;;7.45;;
22837;SDS011;11585;51.450;-0.240;2023-03-13T00:35:08;48.30;;;8.80;;
22837;SDS011;11585;51.450;-0.240;2023-03-13T00:37:33;44.25;;;7.88;;
22837;SDS011;11585;51.450;-0.240;2023-03-13T00:39:59;37.55;;;8.63;;
22837;SDS011;11585;51.450;-0.240;2023-03-13T00:44:53;35.97;;;8.15;;
22837;SDS011;11585;51.450;-0.240;2023-03-13T00:47:19;43.78;;;8.00;;
22837;SDS011;11585;51.450;-0.240;2023-03-13T00:49:45;43.92;;;8.68;;
22837;SDS011;11585;51.450;-0.240;2023-03-13T00:52:10;33.58;;;7.70;;
22837;SDS011;11585;51.450;-0.240;2023-03-13T00:54:38;31.55;;;7.50;;
22837;SDS011;11585;51.450;-0.240;2023-03-13T00:57:03;34.97;;;7.75;;
22837;SDS011;11585;51.450;-0.240;2023-03-13T00:59:29;38.60;;;7.65;;
22837;SDS011;11585;51.450;-0.240;2023-03-13T01:01:54;33.25;;;7.25;;
22837;SDS011;11585;51.450;-0.240;2023-03-13T01:04:20;34.67;;;6.88;;
22837;SDS011;11585;51.450;-0.240;2023-03-13T01:06:46;29.50;;;6.57;;
22837;SDS011;11585;51.450;-0.240;2023-03-13T01:09:13;32.47;;;7.38;;
22837;SDS011;11585;51.450;-0.240;2023-03-13T01:11:40;30.48;;;7.78;;
22837;SDS011;11585;51.450;-0.240;2023-03-13T01:14:11;30.20;;;7.03;;
22837;SDS011;11585;51.450;-0.240;2023-03-13T01:16:38;33.78;;;7.55;;
22837;SDS011;11585;51.450;-0.240;2023-03-13T01:19:06;28.35;;;5.70;;
22837;SDS011;11585;51.450;-0.240;2023-03-13T01:21:34;27.90;;;4.82;;
22837;SDS011;11585;51.450;-0.240;2023-03-13T01:27:03;31.40;;;5.30;;
22837;SDS011;11585;51.450;-0.240;2023-03-13T01:29:29;25.40;;;4.93;;
22837;SDS011;11585;51.450;-0.240;2023-03-13T01:31:54;25.88;;;4.13;;
22837;SDS011;11585;51.450;-0.240;2023-03-13T01:37:41;21.23;;;3.97;;
22837;SDS011;11585;51.450;-0.240;2023-03-13T01:40:07;13.63;;;3.83;;
22837;SDS011;11585;51.450;-0.240;2023-03-13T01:49:27;21.27;;;3.80;;
22837;SDS011;11585;51.450;-0.240;2023-03-13T01:52:00;20.15;;;3.60;;
22837;SDS011;11585;51.450;-0.240;2023-03-13T01:57:30;19.08;;;2.80;;
22837;SDS011;11585;51.450;-0.240;2023-03-13T02:00:03;14.50;;;2.75;;
22837;SDS011;11585;51.450;-0.240;2023-03-13T02:06:07;14.77;;;2.80;;
22837;SDS011;11585;51.450;-0.240;2023-03-13T02:08:36;16.42;;;3.00;;
22837;SDS011;11585;51.450;-0.240;2023-03-13T02:11:12;16.88;;;3.08;;
22837;SDS011;11585;51.450;-0.240;2023-03-13T02:13:46;7.03;;;2.20;;
22837;SDS011;11585;51.450;-0.240;2023-03-13T02:16:14;18.20;;;2.63;;
22837;SDS011;11585;51.450;-0.240;2023-03-13T02:18:40;9.48;;;2.50;;
22837;SDS011;11585;51.450;-0.240;2023-03-13T02:21:20;15.07;;;2.25;;
22837;SDS011;11585;51.450;-0.240;2023-03-13T02:24:00;8.52;;;2.35;;
22837;SDS011;11585;51.450;-0.240;2023-03-13T02:26:33;7.68;;;2.45;;
22837;SDS011;11585;51.450;-0.240;2023-03-13T02:28:59;10.40;;;2.33;;
22837;SDS011;11585;51.450;-0.240;2023-03-13T02:31:25;7.63;;;1.90;;
22837;SDS011;11585;51.450;-0.240;2023-03-13T02:33:51;6.68;;;2.20;;
22837;SDS011;11585;51.450;-0.240;2023-03-13T02:36:18;7.28;;;1.95;;
22837;SDS011;11585;51.450;-0.240;2023-03-13T02:38:48;6.57;;;2.00;;
22837;SDS011;11585;51.450;-0.240;2023-03-13T02:41:19;8.73;;;2.00;;
22837;SDS011;11585;51.450;-0.240;2023-03-13T02:46:16;7.65;;;2.40;;
22837;SDS011;11585;51.450;-0.240;2023-03-13T02:48:44;4.75;;;1.58;;
22837;SDS011;11585;51.450;-0.240;2023-03-13T02:51:16;8.25;;;1.67;;
22837;SDS011;11585;51.450;-0.240;2023-03-13T02:54:09;5.50;;;1.60;;
22837;SDS011;11585;51.450;-0.240;2023-03-13T02:56:38;6.30;;;1.55;;
22837;SDS011;11585;51.450;-0.240;2023-03-13T02:59:06;6.45;;;1.77;;
22837;SDS011;11585;51.450;-0.240;2023-03-13T03:01:31;4.28;;;1.58;;
22837;SDS011;11585;51.450;-0.240;2023-03-13T03:10:25;5.28;;;1.27;;
22837;SDS011;11585;51.450;-0.240;2023-03-13T03:15:55;6.30;;;1.33;;
22837;SDS011;11585;51.450;-0.240;2023-03-13T03:18:21;3.58;;;1.48;;
22837;SDS011;11585;51.450;-0.240;2023-03-13T03:20:47;11.35;;;1.50;;
22837;SDS011;11585;51.450;-0.240;2023-03-13T03:23:13;10.30;;;1.60;;
22837;SDS011;11585;51.450;-0.240;2023-03-13T03:25:39;6.95;;;1.52;;
22837;SDS011;11585;51.450;-0.240;2023-03-13T03:28:05;3.05;;;1.27;;
22837;SDS011;11585;51.450;-0.240;2023-03-13T03:30:30;7.70;;;1.50;;
22837;SDS011;11585;51.450;-0.240;2023-03-13T03:39:25;3.63;;;1.05;;
22837;SDS011;11585;51.450;-0.240;2023-03-13T03:41:52;4.45;;;1.13;;
22837;SDS011;11585;51.450;-0.240;2023-03-13T03:47:03;5.50;;;1.30;;
22837;SDS011;11585;51.450;-0.240;2023-03-13T03:49:28;2.88;;;0.88;;
22837;SDS011;11585;51.450;-0.240;2023-03-13T03:51:54;1.85;;;0.95;;
22837;SDS011;11585;51.450;-0.240;2023-03-13T03:57:41;4.70;;;1.00;;
22837;SDS011;11585;51.450;-0.240;2023-03-13T04:00:07;2.20;;;0.70;;
22837;SDS011;11585;51.450;-0.240;2023-03-13T04:02:38;1.88;;;1.05;;
22837;SDS011;11585;51.450;-0.240;2023-03-13T04:05:04;3.95;;;1.30;;
22837;SDS011;11585;51.450;-0.240;2023-03-13T04:07:29;2.70;;;1.15;;
22837;SDS011;11585;51.450;-0.240;2023-03-13T04:09:55;4.70;;;1.20;;
22837;SDS011;11585;51.450;-0.240;2023-03-13T04:12:21;7.05;;;1.60;;
22837;SDS011;11585;51.450;-0.240;2023-03-13T04:14:46;10.50;;;1.92;;
22837;SDS011;11585;51.450;-0.240;2023-03-13T04:17:12;6.57;;;1.20;;
22837;SDS011;11585;51.450;-0.240;2023-03-13T04:19:38;11.00;;;2.47;;
22837;SDS011;11585;51.450;-0.240;2023-03-13T04:22:03;10.50;;;2.40;;
22837;SDS011;11585;51.450;-0.240;2023-03-13T04:24:29;8.93;;;1.98;;
22837;SDS011;11585;51.450;-0.240;2023-03-13T04:26:54;16.50;;;2.33;;
22837;SDS011;11585;51.450;-0.240;2023-03-13T04:29:20;18.70;;;2.78;;
22837;SDS011;11585;51.450;-0.240;2023-03-13T04:31:46;22.20;;;3.45;;
22837;SDS011;11585;51.450;-0.240;2023-03-13T04:36:42;22.73;;;3.65;;
22837;SDS011;11585;51.450;-0.240;2023-03-13T04:39:08;16.65;;;3.28;;
22837;SDS011;11585;51.450;-0.240;2023-03-13T04:41:33;28.77;;;3.00;;
22837;SDS011;11585;51.450;-0.240;2023-03-13T04:46:45;12.63;;;3.08;;
22837;SDS011;11585;51.450;-0.240;2023-03-13T04:49:11;16.23;;;3.80;;
22837;SDS011;11585;51.450;-0.240;2023-03-13T04:51:37;18.77;;;3.03;;
22837;SDS011;11585;51.450;-0.240;2023-03-13T04:56:48;19.08;;;3.25;;
22837;SDS011;11585;51.450;-0.240;2023-03-13T04:59:14;20.48;;;2.83;;
22837;SDS011;11585;51.450;-0.240;2023-03-13T05:01:40;15.43;;;3.47;;
22837;SDS011;11585;51.450;-0.240;2023-03-13T05:04:09;20.70;;;3.25;;
22837;SDS011;11585;51.450;-0.240;2023-03-13T05:06:35;19.33;;;2.70;;
22837;SDS011;11585;51.450;-0.240;2023-03-13T05:09:01;17.08;;;2.85;;
22837;SDS011;11585;51.450;-0.240;2023-03-13T05:11:28;13.25;;;2.95;;
22837;SDS011;11585;51.450;-0.240;2023-03-13T05:17:15;19.27;;;3.10;;
22837;SDS011;11585;51.450;-0.240;2023-03-13T05:19:41;16.92;;;2.58;;
22837;SDS011;11585;51.450;-0.240;2023-03-13T05:22:07;26.25;;;3.45;;
22837;SDS011;11585;51.450;-0.240;2023-03-13T05:27:55;8.82;;;2.42;;
22837;SDS011;11585;51.450;-0.240;2023-03-13T05:30:20;20.55;;;3.10;;
22837;SDS011;11585;51.450;-0.240;2023-03-13T05:32:47;17.30;;;3.65;;
22837;SDS011;11585;51.450;-0.240;2023-03-13T05:35:13;29.73;;;4.03;;
22837;SDS011;11585;51.450;-0.240;2023-03-13T05:37:38;23.25;;;3.70;;
22837;SDS011;11585;51.450;-0.240;2023-03-13T05:40:04;25.65;;;3.90;;
22837;SDS011;11585;51.450;-0.240;2023-03-13T05:45:52;24.98;;;4.00;;
22837;SDS011;11585;51.450;-0.240;2023-03-13T05:48:18;28.52;;;3.97;;
22837;SDS011;11585;51.450;-0.240;2023-03-13T05:50:43;25.98;;;4.70;;
22837;SDS011;11585;51.450;-0.240;2023-03-13T05:53:09;31.15;;;4.20;;
22837;SDS011;11585;51.450;-0.240;2023-03-13T05:55:34;28.55;;;4.35;;
22837;SDS011;11585;51.450;-0.240;2023-03-13T05:58:00;28.77;;;3.40;;
22837;SDS011;11585;51.450;-0.240;2023-03-13T06:00:26;29.25;;;4.00;;
22837;SDS011;11585;51.450;-0.240;2023-03-13T06:06:13;23.33;;;3.38;;
22837;SDS011;11585;51.450;-0.240;2023-03-13T06:08:39;20.30;;;4.10;;
22837;SDS011;11585;51.450;-0.240;2023-03-13T06:11:05;27.95;;;4.63;;
22837;SDS011;11585;51.450;-0.240;2023-03-13T06:16:19;21.08;;;3.65;;
22837;SDS011;11585;51.450;-0.240;2023-03-13T06:18:45;24.25;;;3.60;;
22837;SDS011;11585;51.450;-0.240;2023-03-13T06:21:10;30.08;;;3.72;;
22837;SDS011;11585;51.450;-0.240;2023-03-13T06:23:36;22.15;;;3.65;;
22837;SDS011;11585;51.450;-0.240;2023-03-13T06:26:02;25.42;;;3.90;;
22837;SDS011;11585;51.450;-0.240;2023-03-13T06:28:28;26.27;;;4.50;;
22837;SDS011;11585;51.450;-0.240;2023-03-13T06:30:53;22.77;;;3.58;;
22837;SDS011;11585;51.450;-0.240;2023-03-13T06:36:04;30.45;;;4.35;;
22837;SDS011;11585;51.450;-0.240;2023-03-13T06:38:30;24.33;;;4.00;;
22837;SDS011;11585;51.450;-0.240;2023-03-13T06:40:55;36.85;;;4.80;;
22837;SDS011;11585;51.450;-0.240;2023-03-13T06:43:22;44.13;;;4.88;;
22837;SDS011;11585;51.450;-0.240;2023-03-13T06:45:48;31.55;;;4.45;;
22837;SDS011;11585;51.450;-0.240;2023-03-13T06:48:14;34.00;;;4.70;;
22837;SDS011;11585;51.450;-0.240;2023-03-13T06:50:40;25.40;;;3.90;;
22837;SDS011;11585;51.450;-0.240;2023-03-13T06:56:28;33.35;;;4.53;;
22837;SDS011;11585;51.450;-0.240;2023-03-13T06:58:53;42.92;;;5.32;;
22837;SDS011;11585;51.450;-0.240;2023-03-13T07:01:19;37.70;;;5.20;;
22837;SDS011;11585;51.450;-0.240;2023-03-13T07:03:46;43.05;;;5.65;;
22837;SDS011;11585;51.450;-0.240;2023-03-13T07:06:12;41.17;;;5.18;;
22837;SDS011;11585;51.450;-0.240;2023-03-13T07:08:38;35.35;;;5.38;;
22837;SDS011;11585;51.450;-0.240;2023-03-13T07:11:08;38.53;;;5.72;;
22837;SDS011;11585;51.450;-0.240;2023-03-13T07:16:05;42.10;;;4.72;;
22837;SDS011;11585;51.450;-0.240;2023-03-13T07:18:36;46.90;;;6.00;;
22837;SDS011;11585;51.450;-0.240;2023-03-13T07:21:03;54.25;;;5.97;;
22837;SDS011;11585;51.450;-0.240;2023-03-13T07:26:33;43.38;;;6.13;;
22837;SDS011;11585;51.450;-0.240;2023-03-13T07:28:58;50.45;;;5.32;;
22837;SDS011;11585;51.450;-0.240;2023-03-13T07:31:24;46.33;;;5.38;;
22837;SDS011;11585;51.450;-0.240;2023-03-13T07:36:38;26.92;;;4.75;;
22837;SDS011;11585;51.450;-0.240;2023-03-13T07:39:05;51.53;;;6.18;;
22837;SDS011;11585;51.450;-0.240;2023-03-13T07:41:31;51.10;;;6.47;;
22837;SDS011;11585;51.450;-0.240;2023-03-13T07:43:58;35.70;;;4.93;;
22837;SDS011;11585;51.450;-0.240;2023-03-13T07:46:24;46.38;;;5.40;;
22837;SDS011;11585;51.450;-0.240;2023-03-13T07:48:50;59.42;;;7.35;;
22837;SDS011;11585;51.450;-0.240;2023-03-13T07:51:17;39.38;;;5.65;;
22837;SDS011;11585;51.450;-0.240;2023-03-13T07:53:50;58.47;;;5.75;;
22837;SDS011;11585;51.450;-0.240;2023-03-13T07:56:18;49.78;;;6.07;;
22837;SDS011;11585;51.450;-0.240;2023-03-13T07:58:45;44.13;;;6.15;;
22837;SDS011;11585;51.450;-0.240;2023-03-13T08:01:13;39.13;;;4.93;;
22837;SDS011;11585;51.450;-0.240;2023-03-13T08:10:27;39.45;;;4.75;;
22837;SDS011;11585;51.450;-0.240;2023-03-13T08:15:40;51.40;;;6.82;;
22837;SDS011;11585;51.450;-0.240;2023-03-13T08:18:05;40.95;;;6.13;;
22837;SDS011;11585;51.450;-0.240;2023-03-13T08:20:31;45.70;;;6.30;;
22837;SDS011;11585;51.450;-0.240;2023-03-13T08:26:06;39.53;;;5.38;;
22837;SDS011;11585;51.450;-0.240;2023-03-13T08:28:35;37.78;;;5.72;;
22837;SDS011;11585;51.450;-0.240;2023-03-13T08:36:26;38.78;;;6.18;;
22837;SDS011;11585;51.450;-0.240;2023-03-13T08:38:54;52.63;;;6.97;;
22837;SDS011;11585;51.450;-0.240;2023-03-13T08:41:24;47.65;;;5.80;;
22837;SDS011;11585;51.450;-0.240;2023-03-13T08:43:53;41.17;;;4.97;;
22837;SDS011;11585;51.450;-0.240;2023-03-13T08:46:20;47.40;;;6.65;;
22837;SDS011;11585;51.450;-0.240;2023-03-13T08:48:52;43.13;;;5.57;;
22837;SDS011;11585;51.450;-0.240;2023-03-13T08:51:20;52.53;;;5.30;;
22837;SDS011;11585;51.450;-0.240;2023-03-13T08:56:20;46.08;;;6.55;;
22837;SDS011;11585;51.450;-0.240;2023-03-13T08:58:48;48.38;;;5.40;;
22837;SDS011;11585;51.450;-0.240;2023-03-13T09:01:18;50.20;;;5.20;;
22837;SDS011;11585;51.450;-0.240;2023-03-13T09:06:15;49.83;;;6.38;;
22837;SDS011;11585;51.450;-0.240;2023-03-13T09:08:41;43.70;;;5.28;;
22837;SDS011;11585;51.450;-0.240;2023-03-13T09:11:08;55.70;;;6.32;;
22837;SDS011;11585;51.450;-0.240;2023-03-13T09:13:39;44.83;;;5.15;;
22837;SDS011;11585;51.450;-0.240;2023-03-13T09:16:08;33.47;;;4.90;;
22837;SDS011;11585;51.450;-0.240;2023-03-13T09:18:35;46.88;;;5.95;;
22837;SDS011;11585;51.450;-0.240;2023-03-13T09:21:01;37.90;;;5.07;;
22837;SDS011;11585;51.450;-0.240;2023-03-13T09:26:33;45.78;;;6.32;;
22837;SDS011;11585;51.450;-0.240;2023-03-13T09:29:05;47.03;;;6.00;;
22837;SDS011;11585;51.450;-0.240;2023-03-13T09:31:32;58.97;;;7.40;;
22837;SDS011;11585;51.450;-0.240;2023-03-13T09:39:12;41.83;;;5.63;;
22837;SDS011;11585;51.450;-0.240;2023-03-13T09:41:39;55.08;;;6.95;;
22837;SDS011;11585;51.450;-0.240;2023-03-13T09:44:24;50.28;;;5.97;;
22837;SDS011;11585;51.450;-0.240;2023-03-13T09:49:32;45.22;;;7.00;;
22837;SDS011;11585;51.450;-0.240;2023-03-13T09:52:15;43.95;;;6.28;;
22837;SDS011;11585;51.450;-0.240;2023-03-13T09:54:49;44.97;;;5.93;;
22837;SDS011;11585;51.450;-0.240;2023-03-13T10:00:00;44.37;;;5.70;;
22837;SDS011;11585;51.450;-0.240;2023-03-13T10:09:07;52.38;;;6.25;;
22837;SDS011;11585;51.450;-0.240;2023-03-13T10:11:46;44.42;;;6.35;;
22837;SDS011;11585;51.450;-0.240;2023-03-13T10:14:26;54.90;;;6.55;;
22837;SDS011;11585;51.450;-0.240;2023-03-13T10:16:58;51.28;;;6.70;;
22837;SDS011;11585;51.450;-0.240;2023-03-13T10:19:33;46.10;;;5.20;;
22837;SDS011;11585;51.450;-0.240;2023-03-13T10:22:02;42.97;;;5.10;;
22837;SDS011;11585;51.450;-0.240;2023-03-13T10:24:41;57.50;;;5.57;;
22837;SDS011;11585;51.450;-0.240;2023-03-13T10:27:22;39.50;;;5.57;;
22837;SDS011;11585;51.450;-0.240;2023-03-13T10:29:48;51.92;;;6.90;;
22837;SDS011;11585;51.450;-0.240;2023-03-13T10:32:14;51.08;;;6.78;;
22837;SDS011;11585;51.450;-0.240;2023-03-13T10:37:26;45.22;;;5.72;;
22837;SDS011;11585;51.450;-0.240;2023-03-13T10:40:10;60.97;;;7.00;;
22837;SDS011;11585;51.450;-0.240;2023-03-13T10:42:50;57.20;;;7.65;;
22837;SDS011;11585;51.450;-0.240;2023-03-13T10:45:20;46.55;;;6.53;;
22837;SDS011;11585;51.450;-0.240;2023-03-13T10:47:53;53.90;;;6.82;;
22837;SDS011;11585;51.450;-0.240;2023-03-13T10:50:21;39.33;;;5.85;;
22837;SDS011;11585;51.450;-0.240;2023-03-13T10:55:20;48.05;;;6.93;;
22837;SDS011;11585;51.450;-0.240;2023-03-13T10:57:55;43.47;;;6.53;;
22837;SDS011;11585;51.450;-0.240;2023-03-13T11:00:32;58.20;;;6.65;;
22837;SDS011;11585;51.450;-0.240;2023-03-13T11:08:21;55.03;;;7.07;;
22837;SDS011;11585;51.450;-0.240;2023-03-13T11:11:21;53.58;;;7.05;;
22837;SDS011;11585;51.450;-0.240;2023-03-13T11:19:21;65.38;;;7.90;;
22837;SDS011;11585;51.450;-0.240;2023-03-13T11:22:11;53.90;;;7.15;;
22837;SDS011;11585;51.450;-0.240;2023-03-13T11:24:45;46.45;;;7.22;;
22837;SDS011;11585;51.450;-0.240;2023-03-13T11:27:29;45.60;;;6.35;;
22837;SDS011;11585;51.450;-0.240;2023-03-13T11:30:13;45.88;;;6.57;;
22837;SDS011;11585;51.450;-0.240;2023-03-13T11:32:51;58.00;;;6.88;;
22837;SDS011;11585;51.450;-0.240;2023-03-13T11:35:24;50.65;;;6.57;;
22837;SDS011;11585;51.450;-0.240;2023-03-13T11:37:57;49.88;;;7.85;;
22837;SDS011;11585;51.450;-0.240;2023-03-13T11:40:29;45.20;;;5.30;;
22837;SDS011;11585;51.450;-0.240;2023-03-13T11:54:40;39.67;;;5.78;;
22837;SDS011;11585;51.450;-0.240;2023-03-13T11:57:13;51.30;;;6.57;;
22837;SDS011;11585;51.450;-0.240;2023-03-13T12:05:32;39.90;;;6.13;;
22837;SDS011;11585;51.450;-0.240;2023-03-13T12:08:11;45.83;;;6.97;;
22837;SDS011;11585;51.450;-0.240;2023-03-13T12:13:53;43.15;;;5.88;;
22837;SDS011;11585;51.450;-0.240;2023-03-13T12:16:30;43.33;;;4.97;;
22837;SDS011;11585;51.450;-0.240;2023-03-13T12:19:21;48.95;;;7.47;;
22837;SDS011;11585;51.450;-0.240;2023-03-13T12:22:06;49.50;;;6.03;;
22837;SDS011;11585;51.450;-0.240;2023-03-13T12:30:18;62.75;;;7.28;;
22837;SDS011;11585;51.450;-0.240;2023-03-13T12:35:41;40.92;;;6.63;;
22837;SDS011;11585;51.450;-0.240;2023-03-13T12:38:16;44.35;;;7.10;;
22837;SDS011;11585;51.450;-0.240;2023-03-13T12:54:38;42.22;;;5.82;;
22837;SDS011;11585;51.450;-0.240;2023-03-13T12:59:46;59.65;;;8.13;;
22837;SDS011;11585;51.450;-0.240;2023-03-13T13:02:19;47.28;;;6.13;;
22837;SDS011;11585;51.450;-0.240;2023-03-13T13:04:51;47.05;;;6.60;;
22837;SDS011;11585;51.450;-0.240;2023-03-13T13:07:28;50.10;;;5.68;;
22837;SDS011;11585;51.450;-0.240;2023-03-13T13:24:55;45.60;;;6.60;;
22837;SDS011;11585;51.450;-0.240;2023-03-13T13:30:01;45.92;;;6.63;;
22837;SDS011;11585;51.450;-0.240;2023-03-13T13:35:28;43.83;;;7.32;;
22837;SDS011;11585;51.450;-0.240;2023-03-13T13:41:02;48.60;;;6.97;;
22837;SDS011;11585;51.450;-0.240;2023-03-13T13:46:54;47.45;;;6.53;;
22837;SDS011;11585;51.450;-0.240;2023-03-13T13:49:24;46.10;;;6.93;;
22837;SDS011;11585;51.450;-0.240;2023-03-13T13:59:40;52.30;;;6.90;;
22837;SDS011;11585;51.450;-0.240;2023-03-13T14:12:52;45.50;;;6.70;;
22837;SDS011;11585;51.450;-0.240;2023-03-13T14:15:24;52.30;;;6.63;;
22837;SDS011;11585;51.450;-0.240;2023-03-13T14:18:07;49.83;;;5.22;;
22837;SDS011;11585;51.450;-0.240;2023-03-13T14:21:22;45.97;;;6.53;;
22837;SDS011;11585;51.450;-0.240;2023-03-13T14:23:38;66.28;;;6.57;;
22837;SDS011;11585;51.450;-0.240;2023-03-13T14:29:06;48.90;;;5.43;;
22837;SDS011;11585;51.450;-0.240;2023-03-13T14:31:39;60.97;;;7.03;;
22837;SDS011;11585;51.450;-0.240;2023-03-13T14:36:53;44.47;;;5.32;;
22837;SDS011;11585;51.450;-0.240;2023-03-13T14:41:54;39.58;;;5.60;;
22837;SDS011;11585;51.450;-0.240;2023-03-13T14:47:29;43.65;;;6.28;;
22837;SDS011;11585;51.450;-0.240;2023-03-13T14:50:08;43.58;;;6.53;;
22837;SDS011;11585;51.450;-0.240;2023-03-13T14:52:42;37.28;;;5.32;;
22837;SDS011;11585;51.450;-0.240;2023-03-13T14:58:02;50.20;;;7.50;;
22837;SDS011;11585;51.450;-0.240;2023-03-13T15:00:41;61.47;;;5.85;;
22837;SDS011;11585;51.450;-0.240;2023-03-13T15:05:45;37.40;;;5.32;;
22837;SDS011;11585;51.450;-0.240;2023-03-13T15:08:21;40.03;;;5.43;;
22837;SDS011;11585;51.450;-0.240;2023-03-13T15:10:47;43.58;;;5.85;;
22837;SDS011;11585;51.450;-0.240;2023-03-13T15:13:24;31.67;;;5.13;;
22837;SDS011;11585;51.450;-0.240;2023-03-13T15:15:55;35.97;;;4.75;;
22837;SDS011;11585;51.450;-0.240;2023-03-13T15:18:22;37.80;;;4.70;;
22837;SDS011;11585;51.450;-0.240;2023-03-13T15:20:49;45.25;;;6.22;;
22837;SDS011;11585;51.450;-0.240;2023-03-13T15:23:17;45.33;;;7.55;;
22837;SDS011;11585;51.450;-0.240;2023-03-13T15:25:43;39.33;;;5.15;;
22837;SDS011;11585;51.450;-0.240;2023-03-13T15:30:43;42.30;;;5.10;;
22837;SDS011;11585;51.450;-0.240;2023-03-13T15:35:58;43.30;;;5.45;;
22837;SDS011;11585;51.450;-0.240;2023-03-13T15:38:24;37.70;;;4.85;;
22837;SDS011;11585;51.450;-0.240;2023-03-13T15:40:51;36.58;;;5.70;;
22837;SDS011;11585;51.450;-0.240;2023-03-13T15:46:02;38.05;;;4.18;;
22837;SDS011;11585;51.450;-0.240;2023-03-13T15:48:28;47.50;;;6.50;;
22837;SDS011;11585;51.450;-0.240;2023-03-13T15:50:59;46.78;;;6.43;;
22837;SDS011;11585;51.450;-0.240;2023-03-13T15:53:29;33.78;;;5.45;;
22837;SDS011;11585;51.450;-0.240;2023-03-13T15:55:58;42.55;;;7.30;;
22837;SDS011;11585;51.450;-0.240;2023-03-13T15:58:25;36.13;;;6.87;;
22837;SDS011;11585;51.450;-0.240;2023-03-13T16:00:52;42.20;;;6.22;;
22837;SDS011;11585;51.450;-0.240;2023-03-13T16:03:22;54.75;;;5.38;;
22837;SDS011;11585;51.450;-0.240;2023-03-13T16:05:50;31.17;;;4.70;;
22837;SDS011;11585;51.450;-0.240;2023-03-13T16:08:19;37.22;;;4.75;;
22837;SDS011;11585;51.450;-0.240;2023-03-13T16:10:49;34.83;;;4.07;;
22837;SDS011;11585;51.450;-0.240;2023-03-13T16:13:15;42.03;;;4.57;;
22837;SDS011;11585;51.450;-0.240;2023-03-13T16:15:42;32.47;;;4.72;;
22837;SDS011;11585;51.450;-0.240;2023-03-13T16:18:12;33.10;;;4.70;;
22837;SDS011;11585;51.450;-0.240;2023-03-13T16:20:43;45.88;;;5.72;;
22837;SDS011;11585;51.450;-0.240;2023-03-13T16:23:10;29.17;;;5.22;;
22837;SDS011;11585;51.450;-0.240;2023-03-13T16:25:36;30.80;;;4.82;;
22837;SDS011;11585;51.450;-0.240;2023-03-13T16:28:02;30.33;;;4.97;;
22837;SDS011;11585;51.450;-0.240;2023-03-13T16:30:29;30.98;;;4.55;;
22837;SDS011;11585;51.450;-0.240;2023-03-13T16:35:45;40.97;;;8.23;;
22837;SDS011;11585;51.450;-0.240;2023-03-13T16:38:11;33.25;;;4.88;;
22837;SDS011;11585;51.450;-0.240;2023-03-13T16:40:37;28.17;;;4.25;;
22837;SDS011;11585;51.450;-0.240;2023-03-13T16:43:02;42.45;;;6.20;;
22837;SDS011;11585;51.450;-0.240;2023-03-13T16:45:28;36.38;;;4.93;;
22837;SDS011;11585;51.450;-0.240;2023-03-13T16:47:53;42.45;;;5.85;;
22837;SDS011;11585;51.450;-0.240;2023-03-13T16:50:32;31.98;;;4.75;;
22837;SDS011;11585;51.450;-0.240;2023-03-13T16:56:29;41.60;;;5.55;;
22837;SDS011;11585;51.450;-0.240;2023-03-13T16:59:01;41.85;;;5.72;;
22837;SDS011;11585;51.450;-0.240;2023-03-13T17:01:28;42.13;;;6.10;;
22837;SDS011;11585;51.450;-0.240;2023-03-13T17:03:56;42.75;;;6.72;;
22837;SDS011;11585;51.450;-0.240;2023-03-13T17:06:26;44.55;;;6.32;;
22837;SDS011;11585;51.450;-0.240;2023-03-13T17:08:53;36.90;;;6.03;;
22837;SDS011;11585;51.450;-0.240;2023-03-13T17:11:20;44.88;;;6.78;;
22837;SDS011;11585;51.450;-0.240;2023-03-13T17:13:50;62.67;;;12.20;;
22837;SDS011;11585;51.450;-0.240;2023-03-13T17:16:24;51.50;;;18.48;;
22837;SDS011;11585;51.450;-0.240;2023-03-13T17:18:54;58.00;;;9.70;;
22837;SDS011;11585;51.450;-0.240;2023-03-13T17:21:22;42.08;;;7.63;;
22837;SDS011;11585;51.450;-0.240;2023-03-13T17:23:50;33.72;;;8.48;;
22837;SDS011;11585;51.450;-0.240;2023-03-13T17:26:18;50.47;;;8.65;;
22837;SDS011;11585;51.450;-0.240;2023-03-13T17:28:53;46.72;;;7.45;;
22837;SDS011;11585;51.450;-0.240;2023-03-13T17:31:20;40.75;;;5.53;;
22837;SDS011;11585;51.450;-0.240;2023-03-13T17:33:48;46.00;;;7.05;;
22837;SDS011;11585;51.450;-0.240;2023-03-13T17:38:42;40.88;;;6.03;;
22837;SDS011;11585;51.450;-0.240;2023-03-13T17:41:11;40.90;;;6.07;;
22837;SDS011;11585;51.450;-0.240;2023-03-13T17:48:54;30.33;;;5.82;;
22837;SDS011;11585;51.450;-0.240;2023-03-13T17:51:23;41.10;;;6.38;;
22837;SDS011;11585;51.450;-0.240;2023-03-13T17:53:51;33.05;;;5.15;;
22837;SDS011;11585;51.450;-0.240;2023-03-13T17:56:21;35.70;;;4.70;;
22837;SDS011;11585;51.450;-0.240;2023-03-13T17:58:53;24.63;;;4.20;;
22837;SDS011;11585;51.450;-0.240;2023-03-13T18:01:21;37.83;;;3.92;;
22837;SDS011;11585;51.450;-0.240;2023-03-13T18:03:49;24.05;;;3.90;;
22837;SDS011;11585;51.450;-0.240;2023-03-13T18:06:25;29.63;;;5.32;;
22837;SDS011;11585;51.450;-0.240;2023-03-13T18:08:53;40.47;;;4.70;;
22837;SDS011;11585;51.450;-0.240;2023-03-13T18:11:21;40.90;;;6.35;;
22837;SDS011;11585;51.450;-0.240;2023-03-13T18:13:51;31.17;;;5.03;;
22837;SDS011;11585;51.450;-0.240;2023-03-13T18:19:22;32.78;;;6.18;;
22837;SDS011;11585;51.450;-0.240;2023-03-13T18:21:49;31.25;;;4.60;;
22837;SDS011;11585;51.450;-0.240;2023-03-13T18:24:19;35.28;;;4.03;;
22837;SDS011;11585;51.450;-0.240;2023-03-13T18:26:46;38.63;;;4.15;;
22837;SDS011;11585;51.450;-0.240;2023-03-13T18:31:40;39.53;;;5.45;;
22837;SDS011;11585;51.450;-0.240;2023-03-13T18:34:07;26.70;;;4.47;;
22837;SDS011;11585;51.450;-0.240;2023-03-13T18:36:34;41.08;;;5.30;;
22837;SDS011;11585;51.450;-0.240;2023-03-13T18:39:00;43.95;;;5.80;;
22837;SDS011;11585;51.450;-0.240;2023-03-13T18:41:25;43.60;;;6.03;;
22837;SDS011;11585;51.450;-0.240;2023-03-13T18:46:39;30.63;;;5.70;;
22837;SDS011;11585;51.450;-0.240;2023-03-13T18:49:13;36.20;;;5.00;;
22837;SDS011;11585;51.450;-0.240;2023-03-13T18:51:45;38.03;;;6.03;;
22837;SDS011;11585;51.450;-0.240;2023-03-13T18:54:12;35.13;;;5.32;;
22837;SDS011;11585;51.450;-0.240;2023-03-13T18:56:38;32.78;;;3.88;;
22837;SDS011;11585;51.450;-0.240;2023-03-13T18:59:05;31.25;;;4.10;;
22837;SDS011;11585;51.450;-0.240;2023-03-13T19:01:35;29.25;;;4.28;;
22837;SDS011;11585;51.450;-0.240;2023-03-13T19:07:13;26.23;;;4.22;;
22837;SDS011;11585;51.450;-0.240;2023-03-13T19:09:43;31.10;;;4.10;;
22837;SDS011;11585;51.450;-0.240;2023-03-13T19:12:09;32.65;;;4.13;;
22837;SDS011;11585;51.450;-0.240;2023-03-13T19:17:58;27.25;;;4.15;;
22837;SDS011;11585;51.450;-0.240;2023-03-13T19:20:24;24.17;;;3.22;;
22837;SDS011;11585;51.450;-0.240;2023-03-13T19:22:52;24.00;;;3.55;;
22837;SDS011;11585;51.450;-0.240;2023-03-13T19:25:18;35.75;;;4.82;;